Time;durP1;ratioP1;P1;durP2;ratioP2;P2;SDS_P1;SDS_P2;PMS_P1;PMS_P2;Temp;Humidity;BMP_temperature;BMP_pressure;BME280_temperature;BME280_humidity;BME280_pressure;Samples;Min_cycle;Max_cycle;Signal;HPM_P1;HPM_P2
2022/03/07 00:00:50;;;;;;;11.03;7.03;;;-2.30;99.90;;;;;;5021756;28;20282;-81
2022/03/07 00:03:19;;;;;;;9.03;6.37;;;-2.30;99.90;;;;;;5020403;28;20228;-81
2022/03/07 00:05:44;;;;;;;9.77;7.17;;;-2.30;99.90;;;;;;5022756;28;20175;-81
2022/03/07 00:08:10;;;;;;;11.23;6.63;;;-2.40;99.90;;;;;;5022831;28;20410;-80
2022/03/07 00:10:37;;;;;;;8.87;6.50;;;-2.40;99.90;;;;;;5024335;28;20203;-80
2022/03/07 00:13:03;;;;;;;9.60;6.93;;;-2.40;99.90;;;;;;5022809;28;20500;-80
2022/03/07 00:15:29;;;;;;;9.73;7.27;;;-2.40;99.90;;;;;;5022848;28;20195;-81
2022/03/07 00:17:55;;;;;;;13.23;7.10;;;-2.50;99.90;;;;;;5020635;28;20421;-80
2022/03/07 00:20:21;;;;;;;11.03;6.90;;;-2.50;99.90;;;;;;5020545;28;20203;-80
2022/03/07 00:22:47;;;;;;;8.43;6.33;;;-2.50;99.90;;;;;;5020257;28;20277;-81
2022/03/07 00:25:12;;;;;;;11.43;6.70;;;-2.50;99.90;;;;;;5021280;28;20426;-80
2022/03/07 00:27:38;;;;;;;8.87;6.33;;;-2.40;99.90;;;;;;5019844;28;20179;-81
2022/03/07 00:30:05;;;;;;;8.97;7.00;;;-2.40;99.90;;;;;;5019738;28;20178;-80
2022/03/07 00:32:31;;;;;;;11.00;6.47;;;-2.40;99.90;;;;;;5020642;28;20229;-81
2022/03/07 00:34:56;;;;;;;9.90;6.53;;;-2.40;99.90;;;;;;5019662;28;20438;-80
2022/03/07 00:37:22;;;;;;;12.80;7.43;;;-2.40;99.90;;;;;;5021144;28;20206;-80
2022/03/07 00:39:48;;;;;;;10.07;6.37;;;-2.00;99.90;;;;;;5019485;28;20215;-80
2022/03/07 00:42:13;;;;;;;9.47;6.23;;;-2.60;99.90;;;;;;5019841;28;20183;-80
2022/03/07 00:44:39;;;;;;;11.20;6.70;;;-2.60;99.90;;;;;;5020715;28;20191;-81
2022/03/07 00:47:05;;;;;;;9.23;6.87;;;-2.70;99.90;;;;;;5020601;28;20178;-80
2022/03/07 00:49:31;;;;;;;10.63;7.10;;;-2.70;99.90;;;;;;5021674;28;20417;-81
2022/03/07 00:51:57;;;;;;;10.97;7.10;;;-2.70;99.90;;;;;;5020572;28;20615;-80
2022/03/07 00:54:23;;;;;;;14.07;7.50;;;-2.70;99.90;;;;;;5020006;28;20301;-80
2022/03/07 00:56:49;;;;;;;9.57;6.90;;;-2.70;99.90;;;;;;5020097;28;20455;-80
2022/03/07 00:59:14;;;;;;;9.47;6.47;;;-2.70;99.90;;;;;;5021196;28;20226;-81
2022/03/07 01:01:41;;;;;;;8.80;6.37;;;-2.80;99.90;;;;;;5022085;28;20170;-82
2022/03/07 01:04:06;;;;;;;10.20;6.97;;;-2.80;99.90;;;;;;5021344;28;20233;-80
2022/03/07 01:06:32;;;;;;;10.90;7.23;;;-2.90;99.90;;;;;;5020452;28;20406;-80
2022/03/07 01:08:58;;;;;;;8.07;6.60;;;-2.90;99.90;;;;;;5021063;28;20172;-80
2022/03/07 01:11:24;;;;;;;9.87;7.03;;;-2.90;99.90;;;;;;5020739;28;20179;-80
2022/03/07 01:13:50;;;;;;;10.43;7.17;;;-2.90;99.90;;;;;;5020034;28;20191;-80
2022/03/07 01:16:15;;;;;;;10.03;7.17;;;-2.60;99.90;;;;;;5020382;28;20167;-80
2022/03/07 01:18:41;;;;;;;9.10;7.10;;;-2.80;99.90;;;;;;5018998;28;20271;-80
2022/03/07 01:21:07;;;;;;;11.13;7.70;;;-3.00;99.90;;;;;;5018828;28;20211;-80
2022/03/07 01:23:32;;;;;;;11.70;8.10;;;-3.00;99.90;;;;;;5018831;28;20207;-81
2022/03/07 01:25:58;;;;;;;11.13;7.77;;;-3.10;99.90;;;;;;5018483;28;20215;-80
2022/03/07 01:28:24;;;;;;;11.60;8.00;;;-3.10;99.90;;;;;;5019570;28;20186;-80
2022/03/07 01:30:50;;;;;;;15.50;7.63;;;-2.40;99.90;;;;;;5018614;28;20191;-81
2022/03/07 01:33:16;;;;;;;9.90;7.13;;;-3.20;99.90;;;;;;5019432;28;20163;-80
2022/03/07 01:35:41;;;;;;;11.83;8.40;;;-3.00;99.90;;;;;;5018157;28;20546;-80
2022/03/07 01:38:07;;;;;;;10.97;8.03;;;-3.30;99.90;;;;;;5020024;28;20179;-80
2022/03/07 01:40:33;;;;;;;10.53;7.83;;;-3.40;99.90;;;;;;5019142;28;20296;-80
2022/03/07 01:42:58;;;;;;;11.77;7.37;;;-3.40;99.90;;;;;;5017542;28;20175;-80
2022/03/07 01:45:24;;;;;;;11.23;7.80;;;-3.40;99.90;;;;;;5017248;28;20668;-81
2022/03/07 01:47:50;;;;;;;12.73;8.33;;;-3.40;99.90;;;;;;5017670;28;20588;-80
2022/03/07 01:50:19;;;;;;;12.93;8.33;;;-3.40;99.90;;;;;;5018913;28;20623;-80
2022/03/07 01:52:47;;;;;;;19.30;9.77;;;-3.40;99.90;;;;;;5018552;28;20414;-80
2022/03/07 01:55:14;;;;;;;13.03;9.53;;;-3.40;99.90;;;;;;5016914;28;20465;-80
2022/03/07 01:57:43;;;;;;;15.97;9.00;;;-3.40;99.90;;;;;;5018618;28;20908;-80
2022/03/07 02:00:15;;;;;;;11.07;8.30;;;-3.40;99.90;;;;;;5016813;28;20457;-81
2022/03/07 02:02:44;;;;;;;13.00;8.67;;;-3.40;99.90;;;;;;5017771;28;20776;-80
2022/03/07 02:05:12;;;;;;;11.57;8.97;;;-3.40;99.90;;;;;;5017294;28;20473;-80
2022/03/07 02:07:38;;;;;;;14.40;8.93;;;-3.40;99.90;;;;;;5018773;28;20864;-80
2022/03/07 02:10:07;;;;;;;12.60;8.83;;;-3.50;99.90;;;;;;5017496;28;20426;-80
2022/03/07 02:12:32;;;;;;;14.23;8.80;;;-3.60;99.90;;;;;;5017466;28;20421;-80
2022/03/07 02:14:58;;;;;;;13.07;8.97;;;-3.60;99.90;;;;;;5017283;28;20784;-80
2022/03/07 02:17:24;;;;;;;14.33;8.83;;;-3.20;99.90;;;;;;5018737;28;20644;-80
2022/03/07 02:19:49;;;;;;;11.73;8.43;;;-3.60;99.90;;;;;;5017113;28;20536;-80
2022/03/07 02:22:16;;;;;;;12.23;8.57;;;-3.40;99.90;;;;;;5017518;28;20543;-80
2022/03/07 02:24:43;;;;;;;13.00;9.00;;;-3.70;99.90;;;;;;5017822;28;20321;-80
2022/03/07 02:27:10;;;;;;;14.17;8.93;;;-3.70;99.90;;;;;;5017168;28;20424;-80
2022/03/07 02:29:37;;;;;;;14.53;9.17;;;-3.70;99.90;;;;;;5017357;28;20421;-80
2022/03/07 02:32:05;;;;;;;13.63;8.83;;;-3.70;99.90;;;;;;5017627;28;20432;-80
2022/03/07 02:34:31;;;;;;;13.90;8.47;;;-3.70;99.90;;;;;;5016938;28;20494;-80
2022/03/07 02:36:56;;;;;;;14.77;8.67;;;-3.70;99.90;;;;;;5018421;28;20422;-80
2022/03/07 02:39:22;;;;;;;12.27;8.53;;;-3.80;99.90;;;;;;5017209;28;20207;-80
2022/03/07 02:41:48;;;;;;;11.07;7.63;;;-3.80;99.90;;;;;;5017680;28;20240;-80
2022/03/07 02:44:14;;;;;;;11.90;8.30;;;-3.90;99.90;;;;;;5017200;28;20195;-80
2022/03/07 02:46:40;;;;;;;10.33;7.77;;;-4.00;99.90;;;;;;5018352;28;20175;-80
2022/03/07 02:49:07;;;;;;;10.90;7.57;;;-4.00;99.90;;;;;;5017736;28;20186;-80
2022/03/07 02:51:34;;;;;;;12.47;8.77;;;-4.00;99.90;;;;;;5017181;28;20179;-80
2022/03/07 02:54:00;;;;;;;10.53;7.37;;;-4.00;99.90;;;;;;5017412;28;20432;-80
2022/03/07 02:56:26;;;;;;;12.60;8.17;;;-3.90;99.90;;;;;;5017008;28;20436;-80
2022/03/07 02:58:52;;;;;;;13.17;8.37;;;-3.90;99.90;;;;;;5018164;28;20210;-80
2022/03/07 03:01:17;;;;;;;14.27;8.47;;;-3.90;99.90;;;;;;5017816;28;20183;-80
2022/03/07 03:03:43;;;;;;;10.50;7.60;;;-3.90;99.90;;;;;;5016581;28;20213;-80
2022/03/07 03:06:09;;;;;;;12.60;8.20;;;-3.90;99.90;;;;;;5016554;28;20183;-80
2022/03/07 03:08:35;;;;;;;12.90;8.67;;;-3.90;99.90;;;;;;5018715;28;20177;-80
2022/03/07 03:11:01;;;;;;;12.07;8.63;;;-3.80;99.90;;;;;;5017880;28;20800;-80
2022/03/07 03:13:27;;;;;;;12.47;8.93;;;-1.70;99.90;;;;;;5015610;28;20182;-80
2022/03/07 03:15:55;;;;;;;15.10;9.17;;;-3.70;99.90;;;;;;5017315;28;20418;-80
2022/03/07 03:18:21;;;;;;;11.43;8.87;;;-3.60;99.90;;;;;;5015433;28;20417;-80
2022/03/07 03:20:49;;;;;;;18.60;9.17;;;-3.60;99.90;;;;;;5017316;28;20575;-80
2022/03/07 03:23:15;;;;;;;14.40;9.00;;;-3.60;99.90;;;;;;5017066;28;20911;-80
2022/03/07 03:25:41;;;;;;;16.07;9.13;;;-3.60;99.90;;;;;;5016472;28;20446;-80
2022/03/07 03:28:07;;;;;;;11.93;8.13;;;-3.40;99.90;;;;;;5015814;28;20809;-80
2022/03/07 03:30:33;;;;;;;12.00;8.53;;;-3.60;99.90;;;;;;5019606;28;20556;-80
2022/03/07 03:33:00;;;;;;;14.67;9.30;;;-3.70;99.90;;;;;;5019694;28;20425;-80
2022/03/07 03:35:25;;;;;;;13.10;9.17;;;-3.70;99.90;;;;;;5021031;28;20202;-80
2022/03/07 03:37:52;;;;;;;13.53;9.17;;;-3.70;99.90;;;;;;5021258;28;20421;-80
2022/03/07 03:40:18;;;;;;;16.13;9.17;;;-3.60;99.90;;;;;;5021224;28;20681;-80
2022/03/07 03:42:43;;;;;;;14.03;9.53;;;-3.70;99.90;;;;;;5019708;28;20418;-80
2022/03/07 03:45:11;;;;;;;12.73;9.33;;;-3.70;99.90;;;;;;5020395;28;20456;-80
2022/03/07 03:47:38;;;;;;;13.90;9.10;;;-3.70;99.90;;;;;;5020747;28;20244;-80
2022/03/07 03:50:05;;;;;;;14.90;9.60;;;-3.80;99.90;;;;;;5019711;28;20455;-80
2022/03/07 03:52:31;;;;;;;12.90;9.10;;;-3.80;99.90;;;;;;5019130;28;20521;-80
2022/03/07 03:54:57;;;;;;;16.10;9.63;;;-3.80;99.90;;;;;;5020629;28;20462;-80
2022/03/07 03:57:24;;;;;;;16.80;9.47;;;-3.90;99.90;;;;;;5019678;28;20182;-80
2022/03/07 03:59:50;;;;;;;13.00;9.47;;;-3.90;99.90;;;;;;5019275;28;20205;-80
2022/03/07 04:02:16;;;;;;;12.23;8.23;;;-4.00;99.90;;;;;;5019387;28;20425;-81
2022/03/07 04:04:41;;;;;;;12.13;9.47;;;-4.00;99.90;;;;;;5018724;28;20440;-80
2022/03/07 04:07:07;;;;;;;13.70;9.70;;;-4.00;99.90;;;;;;5018454;28;20245;-80
2022/03/07 04:09:33;;;;;;;13.53;8.63;;;-2.00;99.90;;;;;;5019268;28;20215;-80
2022/03/07 04:11:59;;;;;;;13.97;9.17;;;-4.10;99.90;;;;;;5019139;28;20185;-80
2022/03/07 04:14:25;;;;;;;11.37;9.27;;;-4.00;99.90;;;;;;5019828;28;20448;-80
2022/03/07 04:16:50;;;;;;;12.90;9.00;;;-4.00;99.90;;;;;;5020060;28;20179;-81
2022/03/07 04:19:16;;;;;;;14.33;9.23;;;-4.10;99.90;;;;;;5019831;28;20213;-80
2022/03/07 04:21:43;;;;;;;16.57;9.63;;;-4.10;99.90;;;;;;5020284;28;20186;-80
2022/03/07 04:24:11;;;;;;;14.17;9.63;;;-4.10;99.90;;;;;;5020579;28;20195;-80
2022/03/07 04:26:38;;;;;;;14.67;9.87;;;-4.20;99.90;;;;;;5019245;28;20449;-80
2022/03/07 04:29:14;;;;;;;14.30;9.83;;;-4.20;99.90;;;;;;5019392;28;20422;-80
2022/03/07 04:31:44;;;;;;;15.73;10.43;;;-4.30;99.90;;;;;;5021160;28;20451;-80
2022/03/07 04:34:14;;;;;;;13.83;9.63;;;-4.30;99.90;;;;;;5019129;28;20954;-80
2022/03/07 04:36:41;;;;;;;16.20;10.93;;;-4.40;99.90;;;;;;5019270;28;20830;-81
2022/03/07 04:39:08;;;;;;;16.77;10.27;;;-4.40;99.90;;;;;;5019679;28;20429;-80
2022/03/07 04:41:34;;;;;;;15.07;9.30;;;-3.60;99.90;;;;;;5018349;28;20422;-79
2022/03/07 04:44:01;;;;;;;17.70;10.07;;;-4.40;99.90;;;;;;5018486;28;20465;-80
2022/03/07 04:46:27;;;;;;;15.57;9.90;;;-4.50;99.90;;;;;;5019283;28;20908;-80
2022/03/07 04:48:53;;;;;;;16.40;9.83;;;-4.40;99.90;;;;;;5018392;28;20458;-80
2022/03/07 04:51:18;;;;;;;19.73;10.93;;;-4.50;99.90;;;;;;5018414;28;20448;-80
2022/03/07 04:53:44;;;;;;;15.37;9.50;;;-4.50;99.90;;;;;;5018560;28;20284;-80
2022/03/07 04:56:10;;;;;;;15.90;11.03;;;-4.50;99.90;;;;;;5019456;28;20257;-80
2022/03/07 04:58:36;;;;;;;16.37;11.37;;;-4.60;99.90;;;;;;5018182;28;20727;-80
2022/03/07 05:01:02;;;;;;;20.23;11.23;;;-4.60;99.90;;;;;;5018200;28;20595;-80
2022/03/07 05:03:28;;;;;;;18.53;10.67;;;-4.60;99.90;;;;;;5018359;28;20191;-80
2022/03/07 05:05:53;;;;;;;20.10;12.37;;;-4.70;99.90;;;;;;5017224;28;20429;-80
2022/03/07 05:08:19;;;;;;;15.63;10.73;;;-4.50;99.90;;;;;;5017442;28;20179;-80
2022/03/07 05:10:45;;;;;;;18.50;10.47;;;-4.70;99.90;;;;;;5017094;28;20287;-80
2022/03/07 05:13:11;;;;;;;14.80;10.57;;;-4.70;99.90;;;;;;5017585;28;20193;-80
2022/03/07 05:15:37;;;;;;;16.33;10.63;;;-4.70;99.90;;;;;;5017936;28;20201;-80
2022/03/07 05:18:04;;;;;;;15.00;10.13;;;-4.70;99.90;;;;;;5018282;28;20185;-80
2022/03/07 05:20:30;;;;;;;17.47;10.90;;;-4.70;99.90;;;;;;5017848;28;20477;-80
2022/03/07 05:22:56;;;;;;;16.43;10.67;;;-2.60;99.90;;;;;;5016363;28;20429;-79
2022/03/07 05:25:22;;;;;;;18.60;11.73;;;-4.60;99.90;;;;;;5016968;28;20437;-79
2022/03/07 05:27:48;;;;;;;21.23;11.33;;;-4.70;99.90;;;;;;5016614;28;20744;-79
2022/03/07 05:30:16;;;;;;;16.63;11.07;;;-4.70;99.90;;;;;;5016523;28;20426;-78
2022/03/07 05:32:44;;;;;;;18.90;10.40;;;-4.60;99.90;;;;;;5016569;28;20179;-79
2022/03/07 05:35:10;;;;;;;15.30;10.47;;;-4.60;99.90;;;;;;5016424;28;20434;-79
2022/03/07 05:37:36;;;;;;;17.37;10.83;;;-4.60;99.90;;;;;;5015818;28;20460;-79
2022/03/07 05:40:03;;;;;;;17.03;11.27;;;-4.60;99.90;;;;;;5015500;28;21005;-79
2022/03/07 05:42:29;;;;;;;17.30;11.03;;;-4.60;99.90;;;;;;5015902;28;20775;-79
2022/03/07 05:44:55;;;;;;;16.30;11.67;;;-4.70;99.90;;;;;;5015695;28;20465;-79
2022/03/07 05:47:21;;;;;;;15.27;10.93;;;-4.10;99.90;;;;;;5015591;28;20209;-79
2022/03/07 05:49:46;;;;;;;17.17;10.93;;;-4.90;99.90;;;;;;5016070;28;20183;-79
2022/03/07 05:52:12;;;;;;;18.43;10.77;;;-4.90;99.90;;;;;;5014377;28;20252;-78
2022/03/07 05:54:37;;;;;;;17.77;11.97;;;-5.00;99.90;;;;;;5016677;28;20211;-78
2022/03/07 05:57:03;;;;;;;18.17;11.27;;;-5.00;99.90;;;;;;5015720;28;20220;-79
2022/03/07 05:59:31;;;;;;;22.13;12.00;;;-4.50;99.90;;;;;;5015825;28;20281;-80
2022/03/07 06:01:57;;;;;;;18.50;11.50;;;-5.00;99.90;;;;;;5016102;28;20254;-80
2022/03/07 06:04:23;;;;;;;18.53;11.47;;;-4.90;99.90;;;;;;5014471;28;20462;-80
2022/03/07 06:06:48;;;;;;;20.03;11.97;;;-4.80;99.90;;;;;;5016927;28;20182;-80
2022/03/07 06:12:36;;;;;;;16.13;10.27;;;-4.80;99.90;;;;;;5017308;28;20162;-80
2022/03/07 06:15:04;;;;;;;22.70;13.13;;;-4.80;99.90;;;;;;5017578;28;20438;-80
2022/03/07 06:17:31;;;;;;;21.13;12.60;;;-4.70;99.90;;;;;;5018085;28;20724;-79
2022/03/07 06:19:57;;;;;;;22.20;13.53;;;-4.70;99.90;;;;;;5016744;28;20454;-80
2022/03/07 06:22:22;;;;;;;21.30;12.40;;;-4.70;99.90;;;;;;5016661;28;20410;-80
2022/03/07 06:25:13;;;;;;;25.37;12.77;;;-4.70;99.90;;;;;;5018220;28;20785;-79
2022/03/07 06:27:39;;;;;;;29.10;13.37;;;-4.60;99.90;;;;;;5019216;28;20170;-80
2022/03/07 06:30:05;;;;;;;33.87;13.00;;;-4.60;99.90;;;;;;5017860;28;20453;-80
2022/03/07 06:36:39;;;;;;;28.90;15.17;;;-4.50;99.90;;;;;;5016490;28;20393;-80
2022/03/07 06:39:06;;;;;;;25.90;14.20;;;-4.50;99.90;;;;;;5017092;28;20425;-80
2022/03/07 06:41:32;;;;;;;23.07;13.73;;;-4.40;99.90;;;;;;5017223;28;20446;-80
2022/03/07 06:44:00;;;;;;;23.27;15.40;;;-4.30;99.90;;;;;;5017563;28;20453;-79
2022/03/07 06:46:26;;;;;;;22.73;14.10;;;-4.20;99.90;;;;;;5016511;28;20437;-79
2022/03/07 06:48:52;;;;;;;23.13;13.93;;;-4.20;99.90;;;;;;5015630;28;20417;-80
2022/03/07 06:51:18;;;;;;;18.57;12.00;;;-4.10;99.90;;;;;;5015791;28;20426;-80
2022/03/07 06:53:44;;;;;;;19.47;12.93;;;-4.10;99.90;;;;;;5016482;28;20215;-80
2022/03/07 06:56:10;;;;;;;20.97;13.10;;;-4.00;99.90;;;;;;5015943;28;20955;-80
2022/03/07 06:58:36;;;;;;;24.37;12.77;;;-3.90;99.90;;;;;;5017296;28;20203;-80
2022/03/07 07:01:02;;;;;;;34.93;13.07;;;-3.80;99.90;;;;;;5017540;28;20453;-78
2022/03/07 07:03:29;;;;;;;25.53;12.67;;;-3.70;99.90;;;;;;5017448;28;20171;-80
2022/03/07 07:05:56;;;;;;;27.27;12.57;;;-2.60;99.90;;;;;;5025302;28;20245;-77
2022/03/07 07:08:22;;;;;;;19.23;12.77;;;-3.50;99.90;;;;;;5020059;28;20922;-77
2022/03/07 07:14:13;;;;;;;20.47;11.43;;;-3.30;99.90;;;;;;5019599;28;20210;-78
2022/03/07 07:20:25;;;;;;;15.10;8.60;;;-3.20;99.90;;;;;;5020137;28;20461;-80
2022/03/07 07:22:51;;;;;;;17.00;9.43;;;-3.00;99.90;;;;;;5019112;28;20417;-80
2022/03/07 07:25:16;;;;;;;12.80;8.63;;;-3.00;99.90;;;;;;5018747;28;20449;-80
2022/03/07 07:27:42;;;;;;;14.33;8.53;;;-2.90;99.90;;;;;;5020489;28;20178;-79
2022/03/07 07:30:09;;;;;;;13.97;8.33;;;-2.90;99.90;;;;;;5019668;28;20186;-79
2022/03/07 07:32:35;;;;;;;16.00;9.67;;;-2.80;99.90;;;;;;5020890;28;20186;-80
2022/03/07 07:35:01;;;;;;;13.17;9.00;;;-2.70;99.90;;;;;;5020510;28;20453;-80
2022/03/07 07:37:27;;;;;;;15.73;9.40;;;-2.00;99.90;;;;;;5019024;28;20436;-80
2022/03/07 07:39:52;;;;;;;16.97;11.10;;;-2.50;99.90;;;;;;5021482;28;20203;-79
2022/03/07 07:42:18;;;;;;;16.07;10.90;;;-2.30;99.90;;;;;;5022336;28;20190;-80
2022/03/07 07:44:44;;;;;;;13.03;8.50;;;-2.20;99.90;;;;;;5018412;28;20206;-80
2022/03/07 07:47:09;;;;;;;14.17;8.23;;;-2.10;99.90;;;;;;5018783;28;20183;-80
2022/03/07 07:49:36;;;;;;;14.63;9.57;;;-2.00;99.90;;;;;;5018786;28;20215;-80
2022/03/07 07:52:03;;;;;;;11.50;9.03;;;-1.60;99.90;;;;;;5019993;28;20186;-81
2022/03/07 07:54:30;;;;;;;14.20;9.10;;;-0.90;99.90;;;;;;5018230;28;20453;-81
2022/03/07 07:56:56;;;;;;;12.70;8.50;;;-0.40;99.90;;;;;;5018998;28;20429;-80
2022/03/07 07:59:22;;;;;;;16.03;8.93;;;0.10;99.90;;;;;;5021126;28;20552;-81
2022/03/07 08:01:47;;;;;;;10.60;8.37;;;0.60;99.90;;;;;;5021222;28;20183;-81
2022/03/07 08:04:13;;;;;;;14.03;8.73;;;0.90;99.90;;;;;;5019367;28;20319;-81
2022/03/07 08:10:06;;;;;;;21.87;14.97;;;1.40;99.90;;;;;;5023563;28;20206;-81
2022/03/07 08:12:32;;;;;;;13.33;8.67;;;1.60;99.90;;;;;;5021266;28;20410;-80
2022/03/07 08:14:58;;;;;;;11.03;9.40;;;1.30;99.90;;;;;;5020219;28;20229;-81
2022/03/07 08:17:24;;;;;;;13.17;9.70;;;1.50;99.90;;;;;;5019658;28;20243;-81
2022/03/07 08:19:49;;;;;;;14.00;9.13;;;1.80;99.90;;;;;;5020522;28;20210;-81
2022/03/07 08:22:15;;;;;;;10.60;7.83;;;2.10;99.90;;;;;;5018701;28;20182;-80
2022/03/07 08:24:41;;;;;;;12.57;9.23;;;1.90;99.90;;;;;;5021077;28;20206;-81
2022/03/07 08:27:07;;;;;;;13.30;9.87;;;1.70;99.90;;;;;;5020599;28;20645;-81
2022/03/07 08:29:32;;;;;;;14.50;9.50;;;2.00;99.90;;;;;;5022098;28;20199;-81
2022/03/07 08:31:58;;;;;;;14.83;9.57;;;1.70;99.90;;;;;;5020954;28;20188;-80
2022/03/07 08:34:24;;;;;;;11.70;9.80;;;1.50;99.90;;;;;;5019131;28;20218;-80
2022/03/07 08:36:50;;;;;;;12.57;9.50;;;1.50;99.90;;;;;;5020067;28;20180;-80
2022/03/07 08:39:15;;;;;;;10.93;9.07;;;1.60;99.90;;;;;;5021524;28;20231;-80
2022/03/07 08:41:41;;;;;;;12.43;9.00;;;1.90;99.90;;;;;;5020938;28;20172;-80
2022/03/07 08:44:07;;;;;;;13.60;10.03;;;2.30;99.90;;;;;;5020163;28;20194;-81
2022/03/07 08:46:32;;;;;;;15.10;9.57;;;2.50;99.90;;;;;;5020835;28;20182;-80
2022/03/07 08:49:01;;;;;;;12.67;9.10;;;2.80;99.90;;;;;;5018903;28;20238;-80
2022/03/07 08:51:27;;;;;;;12.23;9.83;;;3.00;99.90;;;;;;5019932;28;20178;-80
2022/03/07 08:54:26;;;;;;;11.67;9.00;;;2.80;99.90;;;;;;5017145;28;20211;-80
2022/03/07 08:57:44;;;;;;;10.93;9.10;;;2.60;99.90;;;;;;5018702;28;20640;-80
2022/03/07 09:00:11;;;;;;;10.73;8.83;;;3.00;99.90;;;;;;5017491;28;20208;-80
2022/03/07 09:02:37;;;;;;;9.83;8.40;;;3.10;99.60;;;;;;5018337;28;20201;-80
2022/03/07 09:08:25;;;;;;;12.13;9.87;;;2.70;99.50;;;;;;5019826;28;20169;-79
2022/03/07 09:10:51;;;;;;;12.00;9.17;;;2.50;99.50;;;;;;5019644;28;20181;-79
2022/03/07 09:13:16;;;;;;;12.70;9.20;;;2.80;99.10;;;;;;5017477;28;20185;-80
2022/03/07 09:15:45;;;;;;;11.20;8.73;;;2.70;97.60;;;;;;5017514;28;20216;-81
2022/03/07 09:18:12;;;;;;;12.30;9.43;;;2.70;97.90;;;;;;5017401;28;20244;-81
2022/03/07 09:20:39;;;;;;;12.43;9.07;;;2.80;98.90;;;;;;5018057;28;20338;-81
2022/03/07 09:26:27;;;;;;;12.13;9.27;;;3.00;97.80;;;;;;5019438;28;20165;-82
2022/03/07 09:32:18;;;;;;;13.13;9.43;;;4.30;95.10;;;;;;5019133;28;20191;-80
2022/03/07 09:34:44;;;;;;;9.83;8.47;;;4.30;93.80;;;;;;5017576;28;20290;-80
2022/03/07 09:37:10;;;;;;;13.17;10.20;;;4.40;94.30;;;;;;5017766;28;20206;-81
2022/03/07 09:39:36;;;;;;;10.63;9.47;;;4.10;92.80;;;;;;5017782;28;20309;-81
2022/03/07 09:45:24;;;;;;;10.97;9.50;;;3.30;93.10;;;;;;5018970;28;20225;-80
2022/03/07 09:48:24;;;;;;;12.67;9.63;;;1.90;94.80;;;;;;5017984;28;20179;-81
2022/03/07 09:54:12;;;;;;;14.83;10.30;;;1.60;96.50;;;;;;5019428;28;20233;-81
2022/03/07 09:56:41;;;;;;;11.97;10.43;;;2.70;97.30;;;;;;5019917;28;20167;-81
2022/03/07 10:06:17;;;;;;;12.57;10.10;;;3.40;93.50;;;;;;5020848;28;20513;-82
2022/03/07 10:09:03;;;;;;;13.90;10.33;;;3.50;92.80;;;;;;5019246;28;20183;-81
2022/03/07 10:11:33;;;;;;;11.97;9.77;;;3.50;93.60;;;;;;5019195;28;20166;-81
2022/03/07 10:17:37;;;;;;;13.90;10.77;;;2.80;92.40;;;;;;5019308;28;20209;-80
2022/03/07 10:20:06;;;;;;;11.80;9.70;;;2.70;93.20;;;;;;5019629;28;20210;-81
2022/03/07 10:22:32;;;;;;;12.90;10.77;;;3.60;93.60;;;;;;5019221;28;20719;-82
2022/03/07 10:28:21;;;;;;;11.67;9.73;;;3.90;92.90;;;;;;5018999;28;20178;-82
2022/03/07 10:30:55;;;;;;;12.37;10.50;;;4.80;91.70;;;;;;5018873;28;20173;-82
2022/03/07 10:33:26;;;;;;;11.30;9.70;;;4.90;91.40;;;;;;5016854;28;20526;-82
2022/03/07 10:36:29;;;;;;;12.13;10.30;;;4.70;88.80;;;;;;5022474;28;20192;-82
2022/03/07 10:38:59;;;;;;;11.97;9.93;;;4.90;88.40;;;;;;5016853;28;20245;-81
2022/03/07 10:41:45;;;;;;;12.57;10.37;;;4.70;89.80;;;;;;5018579;28;20659;-80
2022/03/07 10:48:10;;;;;;;14.90;10.30;;;4.00;87.40;;;;;;5016317;28;20209;-79
2022/03/07 10:51:32;;;;;;;13.83;10.97;;;4.00;90.10;;;;;;5015633;28;20171;-81
2022/03/07 10:57:21;;;;;;;12.80;10.57;;;5.30;86.30;;;;;;5014953;28;20174;-79
2022/03/07 10:59:47;;;;;;;14.00;11.03;;;4.40;86.50;;;;;;5016499;28;20694;-79
2022/03/07 11:02:16;;;;;;;11.47;10.27;;;3.60;86.10;;;;;;5018039;28;20176;-80
2022/03/07 11:04:45;;;;;;;12.43;10.50;;;3.30;89.40;;;;;;5016964;28;20209;-81
2022/03/07 11:07:12;;;;;;;13.70;10.40;;;3.10;90.50;;;;;;5015686;28;20171;-80
2022/03/07 11:09:39;;;;;;;14.63;11.53;;;3.50;90.60;;;;;;5016361;28;20252;-80
2022/03/07 11:12:09;;;;;;;13.70;10.40;;;4.30;89.20;;;;;;5017741;28;20536;-80
2022/03/07 11:14:37;;;;;;;11.47;9.83;;;3.80;88.60;;;;;;5018039;28;20198;-80
2022/03/07 11:20:27;;;;;;;18.17;11.43;;;4.90;84.80;;;;;;5016409;28;20202;-79
2022/03/07 11:22:53;;;;;;;12.00;10.60;;;4.50;84.00;;;;;;5017214;28;20162;-81
2022/03/07 11:25:19;;;;;;;14.70;10.93;;;4.60;85.70;;;;;;5017306;28;20195;-80
2022/03/07 11:27:45;;;;;;;14.33;11.30;;;4.60;84.60;;;;;;5017400;28;20171;-80
2022/03/07 11:30:19;;;;;;;14.50;11.07;;;4.20;85.10;;;;;;5015607;28;20186;-80
2022/03/07 11:32:46;;;;;;;12.87;10.80;;;4.20;85.20;;;;;;5015484;28;20178;-80
2022/03/07 11:35:16;;;;;;;14.67;11.23;;;4.10;84.10;;;;;;5014447;28;20195;-80
2022/03/07 11:37:42;;;;;;;13.80;10.83;;;4.00;84.90;;;;;;5014672;28;20186;-81
2022/03/07 11:40:28;;;;;;;14.40;11.27;;;3.60;84.10;;;;;;5017140;28;20309;-81
2022/03/07 11:42:53;;;;;;;15.10;11.03;;;3.70;88.00;;;;;;5016526;28;20183;-81
2022/03/07 11:45:22;;;;;;;12.60;11.07;;;4.80;86.10;;;;;;5014534;28;20290;-81
2022/03/07 11:47:48;;;;;;;13.00;11.50;;;5.60;84.00;;;;;;5017416;28;20175;-80
2022/03/07 11:50:22;;;;;;;13.30;11.83;;;6.00;79.70;;;;;;5019200;28;20179;-83
2022/03/07 11:53:22;;;;;;;15.47;11.93;;;5.80;79.50;;;;;;5021423;28;20562;-82
2022/03/07 11:59:54;;;;;;;15.37;11.50;;;4.40;82.80;;;;;;5022017;28;20652;-80
2022/03/07 12:06:20;;;;;;;13.73;11.13;;;5.20;79.80;;;;;;5021875;28;20212;-80
2022/03/07 12:08:57;;;;;;;14.70;11.63;;;4.60;79.10;;;;;;5021324;28;20171;-80
2022/03/07 12:12:09;;;;;;;13.20;11.67;;;3.50;81.80;;;;;;5021142;28;20178;-80
2022/03/07 12:14:46;;;;;;;15.40;11.77;;;2.70;84.40;;;;;;5020213;28;20207;-80
2022/03/07 12:17:14;;;;;;;15.10;11.83;;;2.70;85.70;;;;;;5020856;28;20174;-80
2022/03/07 12:19:41;;;;;;;14.90;12.27;;;2.50;86.20;;;;;;5021179;28;20206;-81
2022/03/07 12:22:12;;;;;;;16.97;11.10;;;2.60;86.50;;;;;;5019842;28;20176;-81
2022/03/07 12:24:39;;;;;;;15.27;11.60;;;3.00;86.40;;;;;;5021087;28;20195;-80
2022/03/07 12:27:07;;;;;;;19.37;12.03;;;3.20;87.60;;;;;;5022262;28;20250;-80
2022/03/07 12:29:43;;;;;;;15.70;11.83;;;4.70;85.20;;;;;;5022207;28;20171;-80
2022/03/07 12:35:32;;;;;;;16.03;11.47;;;4.70;78.80;;;;;;5021609;28;20226;-80
2022/03/07 12:48:14;;;;;;;14.37;11.20;;;6.30;75.60;;;;;;5021089;28;20181;-80
2022/03/07 12:50:42;;;;;;;15.57;11.77;;;6.90;73.50;;;;;;5019409;28;20186;-81
2022/03/07 12:53:15;;;;;;;17.23;11.33;;;7.80;70.80;;;;;;5021086;28;20205;-82
2022/03/07 12:55:41;;;;;;;14.00;11.27;;;8.00;67.00;;;;;;5017976;28;20219;-81
2022/03/07 12:58:07;;;;;;;14.70;10.90;;;6.90;67.60;;;;;;5018797;28;20167;-81
2022/03/07 13:00:34;;;;;;;14.33;11.33;;;7.20;68.10;;;;;;5017250;28;20202;-82
2022/03/07 13:03:03;;;;;;;13.97;11.93;;;7.30;67.20;;;;;;5018202;28;20201;-81
2022/03/07 13:05:31;;;;;;;16.83;10.70;;;7.50;67.20;;;;;;5017987;28;20194;-79
2022/03/07 13:08:04;;;;;;;14.47;11.77;;;8.10;66.10;;;;;;5019462;28;20579;-81
2022/03/07 13:10:31;;;;;;;14.63;11.23;;;8.50;65.20;;;;;;5017445;28;20182;-80
2022/03/07 13:13:04;;;;;;;15.93;11.60;;;8.00;62.30;;;;;;5018038;28;20538;-79
2022/03/07 13:15:48;;;;;;;13.03;11.63;;;6.60;65.10;;;;;;5017426;28;20214;-79
2022/03/07 13:19:08;;;;;;;12.80;11.47;;;6.10;69.00;;;;;;5019487;28;20265;-79
2022/03/07 13:21:41;;;;;;;12.67;10.43;;;7.50;66.40;;;;;;5018243;28;20307;-79
2022/03/07 13:24:10;;;;;;;15.77;11.33;;;8.80;62.60;;;;;;5018308;28;20583;-79
2022/03/07 13:26:37;;;;;;;14.20;11.40;;;9.30;59.20;;;;;;5018333;28;20213;-79
2022/03/07 13:32:41;;;;;;;15.47;12.00;;;6.50;61.60;;;;;;5018320;28;20166;-79
2022/03/07 13:35:27;;;;;;;13.43;11.53;;;6.10;64.60;;;;;;5016993;28;20281;-79
2022/03/07 13:37:53;;;;;;;14.73;11.33;;;7.20;64.60;;;;;;5017197;28;20178;-79
2022/03/07 13:40:24;;;;;;;13.40;11.13;;;7.70;60.00;;;;;;5018026;28;20667;-79
2022/03/07 13:42:52;;;;;;;14.37;11.07;;;8.90;59.50;;;;;;5017026;28;20239;-80
2022/03/07 13:45:27;;;;;;;14.40;11.70;;;8.90;59.40;;;;;;5015584;28;20194;-79
2022/03/07 13:48:12;;;;;;;19.03;12.50;;;7.70;58.40;;;;;;5015158;28;20209;-78
2022/03/07 13:50:45;;;;;;;14.67;11.27;;;6.70;62.10;;;;;;5017738;28;20159;-79
2022/03/07 13:53:15;;;;;;;14.83;12.17;;;7.50;62.30;;;;;;5019294;28;20159;-79
2022/03/07 13:55:46;;;;;;;15.60;12.47;;;8.50;60.30;;;;;;5017980;28;20226;-79
2022/03/07 13:58:24;;;;;;;15.17;11.80;;;9.10;58.20;;;;;;5018742;28;20167;-80
2022/03/07 14:08:00;;;;;;;15.13;11.50;;;7.60;58.90;;;;;;5018677;28;20166;-80
2022/03/07 14:11:13;;;;;;;13.27;11.10;;;6.80;58.90;;;;;;5020205;28;20189;-80
2022/03/07 14:13:47;;;;;;;15.80;12.03;;;6.80;59.20;;;;;;5019557;28;20175;-80